createdAt,value
2022-11-18T00:00:35.001Z,3.47
2022-11-18T00:03:01.487Z,3.55
2022-11-18T00:05:28.128Z,3.65
2022-11-18T00:07:54.796Z,4.00
2022-11-18T00:10:21.367Z,3.67
2022-11-18T00:13:06.228Z,3.38
2022-11-18T00:15:32.922Z,3.50
2022-11-18T00:17:59.405Z,3.50
2022-11-18T00:20:25.914Z,3.85
2022-11-18T00:22:52.509Z,3.05
2022-11-18T00:25:19.070Z,3.90
2022-11-18T00:27:45.559Z,4.40
2022-11-18T00:30:12.268Z,4.22
2022-11-18T00:32:38.766Z,4.00
2022-11-18T00:35:05.638Z,3.60
2022-11-18T00:37:32.193Z,3.88
2022-11-18T00:39:58.739Z,3.90
2022-11-18T00:42:44.026Z,3.85
2022-11-18T00:45:10.824Z,3.55
2022-11-18T00:47:37.410Z,3.85
2022-11-18T00:50:04.217Z,3.90
2022-11-18T00:52:30.750Z,3.22
2022-11-18T00:54:57.245Z,3.88
2022-11-18T00:57:23.752Z,3.60
2022-11-18T00:59:50.269Z,4.07
2022-11-18T01:02:16.869Z,3.53
2022-11-18T01:04:43.437Z,3.72
2022-11-18T01:07:10.039Z,4.13
2022-11-18T01:09:36.715Z,3.42
2022-11-18T01:12:21.804Z,3.83
2022-11-18T01:14:48.413Z,3.55
2022-11-18T01:17:20.866Z,3.88
2022-11-18T01:19:47.707Z,3.80
2022-11-18T01:22:14.234Z,3.60
2022-11-18T01:24:40.860Z,3.72
2022-11-18T01:27:07.400Z,4.00
2022-11-18T01:29:33.939Z,3.78
2022-11-18T01:34:47.224Z,3.33
2022-11-18T01:37:13.772Z,3.97
2022-11-18T01:39:40.505Z,3.85
2022-11-18T01:42:12.443Z,3.72
2022-11-18T01:44:56.204Z,3.60
2022-11-18T01:47:23.062Z,3.72
2022-11-18T01:49:49.682Z,3.90
2022-11-18T01:52:16.372Z,3.67
2022-11-18T01:54:47.607Z,3.58
2022-11-18T01:57:17.937Z,3.85
2022-11-18T01:59:46.499Z,4.20
2022-11-18T02:02:14.684Z,3.97
2022-11-18T02:04:43.777Z,4.00
2022-11-18T02:07:11.198Z,4.25
2022-11-18T02:09:38.438Z,3.78
2022-11-18T02:12:05.645Z,3.83
2022-11-18T02:14:34.295Z,4.28
2022-11-18T02:17:19.624Z,4.10
2022-11-18T02:19:46.281Z,3.70
2022-11-18T02:22:24.994Z,3.92
2022-11-18T02:25:07.151Z,3.97
2022-11-18T02:27:52.137Z,4.03
2022-11-18T02:30:19.108Z,4.18
2022-11-18T02:32:48.679Z,4.05
2022-11-18T02:35:29.145Z,3.53
2022-11-18T02:37:58.668Z,3.50
2022-11-18T02:40:29.764Z,4.22
2022-11-18T02:43:04.578Z,4.00
2022-11-18T02:45:31.820Z,3.85
2022-11-18T02:48:01.444Z,3.15
2022-11-18T02:50:29.254Z,3.78
2022-11-18T02:52:58.066Z,3.58
2022-11-18T02:55:27.331Z,3.55
2022-11-18T02:57:54.173Z,3.67
2022-11-18T03:00:20.758Z,3.92
2022-11-18T03:02:48.240Z,3.72
2022-11-18T03:05:18.159Z,4.00
2022-11-18T03:07:46.630Z,3.22
2022-11-18T03:10:13.574Z,4.18
2022-11-18T03:12:50.927Z,4.05
2022-11-18T03:15:20.381Z,3.90
2022-11-18T03:18:03.541Z,4.00
2022-11-18T03:20:34.700Z,3.78
2022-11-18T03:23:04.628Z,3.90
2022-11-18T03:25:38.182Z,3.78
2022-11-18T03:28:13.564Z,3.90
2022-11-18T03:30:46.007Z,3.40
2022-11-18T03:33:14.807Z,3.85
2022-11-18T03:35:43.522Z,3.90
2022-11-18T03:38:20.570Z,3.70
2022-11-18T03:40:50.386Z,4.00
2022-11-18T03:43:22.486Z,3.63
2022-11-18T03:45:50.652Z,3.88
2022-11-18T03:48:18.629Z,3.72
2022-11-18T03:50:48.013Z,3.97
2022-11-18T03:53:15.944Z,3.92
2022-11-18T03:55:45.048Z,4.30
2022-11-18T03:58:11.574Z,3.83
2022-11-18T04:00:41.174Z,3.70
2022-11-18T04:03:08.061Z,3.80
2022-11-18T04:05:37.428Z,4.30
2022-11-18T04:08:05.491Z,3.70
2022-11-18T04:10:34.988Z,3.88
2022-11-18T04:13:22.833Z,4.13
2022-11-18T04:15:49.695Z,3.80
2022-11-18T04:18:16.398Z,3.85
2022-11-18T04:20:42.938Z,4.03
2022-11-18T04:23:09.674Z,4.03
2022-11-18T04:25:36.529Z,3.78
2022-11-18T04:28:03.566Z,3.80
2022-11-18T04:30:30.626Z,3.88
2022-11-18T04:32:57.584Z,4.10
2022-11-18T04:35:24.939Z,3.80
2022-11-18T04:37:51.555Z,4.05
2022-11-18T04:40:18.237Z,4.10
2022-11-18T04:42:44.935Z,3.75
2022-11-18T04:45:11.482Z,3.50
2022-11-18T04:47:38.228Z,3.55
2022-11-18T04:50:05.073Z,3.58
2022-11-18T04:52:31.730Z,3.67
2022-11-18T04:54:58.317Z,3.30
2022-11-18T04:57:25.015Z,3.75
2022-11-18T04:59:51.709Z,3.55
2022-11-18T05:02:18.393Z,3.83
2022-11-18T05:04:45.112Z,3.78
2022-11-18T05:07:14.376Z,3.60
2022-11-18T05:09:41.056Z,3.58
2022-11-18T05:12:29.733Z,3.90
2022-11-18T05:14:56.326Z,4.63
2022-11-18T05:17:23.033Z,3.72
2022-11-18T05:19:49.754Z,3.50
2022-11-18T05:22:16.694Z,3.85
2022-11-18T05:24:43.430Z,4.18
2022-11-18T05:27:09.842Z,3.47
2022-11-18T05:29:36.261Z,3.80
2022-11-18T05:32:02.884Z,3.95
2022-11-18T05:34:29.415Z,3.63
2022-11-18T05:36:55.956Z,3.70
2022-11-18T05:39:22.533Z,3.88
2022-11-18T05:42:07.750Z,3.35
2022-11-18T05:44:34.374Z,4.10
2022-11-18T05:47:01.003Z,3.83
2022-11-18T05:49:27.537Z,3.47
2022-11-18T05:51:53.964Z,3.53
2022-11-18T05:54:21.128Z,3.95
2022-11-18T05:56:47.764Z,4.20
2022-11-18T05:59:14.508Z,3.67
2022-11-18T06:01:56.139Z,4.50
2022-11-18T06:04:25.390Z,3.88
2022-11-18T06:06:53.796Z,3.83
2022-11-18T06:09:22.540Z,3.40
2022-11-18T06:11:51.629Z,3.15
2022-11-18T06:14:23.351Z,3.30
2022-11-18T06:16:51.305Z,3.60
2022-11-18T06:19:18.313Z,3.90
2022-11-18T06:21:46.593Z,3.50
2022-11-18T06:24:13.716Z,3.78
2022-11-18T06:26:40.932Z,3.55
2022-11-18T06:29:08.380Z,3.72
2022-11-18T06:31:35.274Z,3.70
2022-11-18T06:34:01.752Z,4.15
2022-11-18T06:36:28.354Z,3.90
2022-11-18T06:38:54.926Z,4.30
2022-11-18T06:41:21.485Z,4.60
2022-11-18T06:43:48.046Z,4.45
2022-11-18T06:46:34.176Z,4.88
2022-11-18T06:49:01.552Z,4.18
2022-11-18T06:51:28.258Z,4.50
2022-11-18T06:53:54.922Z,5.18
2022-11-18T06:56:22.313Z,3.70
2022-11-18T06:58:52.938Z,3.97
2022-11-18T07:01:24.150Z,3.90
2022-11-18T07:03:50.883Z,3.60
2022-11-18T07:06:18.673Z,3.92
2022-11-18T07:08:45.314Z,3.60
2022-11-18T07:11:13.263Z,3.83
2022-11-18T07:13:43.554Z,3.45
2022-11-18T07:16:28.803Z,2.45
2022-11-18T07:18:55.736Z,3.30
2022-11-18T07:21:23.845Z,3.58
2022-11-18T07:23:50.382Z,3.70
2022-11-18T07:26:17.029Z,3.17
2022-11-18T07:28:43.619Z,3.58
2022-11-18T07:31:15.490Z,3.83
2022-11-18T07:33:42.619Z,2.80
2022-11-18T07:36:13.489Z,4.50
2022-11-18T07:38:40.059Z,3.30
2022-11-18T07:41:16.813Z,4.00
2022-11-18T07:43:44.043Z,4.47
2022-11-18T07:46:23.908Z,3.45
2022-11-18T07:48:51.649Z,3.58
2022-11-18T07:51:19.349Z,3.45
2022-11-18T07:53:45.914Z,3.97
2022-11-18T07:56:13.119Z,3.40
2022-11-18T07:58:40.189Z,3.75
2022-11-18T08:01:10.887Z,3.80
2022-11-18T08:03:37.565Z,3.70
2022-11-18T08:06:04.764Z,3.80
2022-11-18T08:08:31.315Z,3.55
2022-11-18T08:10:58.377Z,3.35
2022-11-18T08:13:26.835Z,4.10
2022-11-18T08:15:53.928Z,3.40
2022-11-18T08:18:20.751Z,3.58
2022-11-18T08:20:47.330Z,3.58
2022-11-18T08:23:14.713Z,3.75
2022-11-18T08:25:42.619Z,3.53
2022-11-18T08:28:09.710Z,2.72
2022-11-18T08:30:36.368Z,3.00
2022-11-18T08:33:02.969Z,3.10
2022-11-18T08:35:29.789Z,3.53
2022-11-18T08:37:56.568Z,3.28
2022-11-18T08:40:23.088Z,3.00
2022-11-18T08:42:49.877Z,3.38
2022-11-18T08:45:16.572Z,2.72
2022-11-18T08:47:43.560Z,3.35
2022-11-18T08:50:11.158Z,3.20
2022-11-18T08:52:37.986Z,3.00
2022-11-18T08:55:04.880Z,3.17
2022-11-18T08:57:31.566Z,3.38
2022-11-18T08:59:58.178Z,3.20
2022-11-18T09:02:24.978Z,3.33
2022-11-18T09:04:52.004Z,3.40
2022-11-18T09:07:19.419Z,2.78
2022-11-18T09:09:46.098Z,2.88
2022-11-18T09:12:15.134Z,2.92
2022-11-18T09:17:32.159Z,3.10
2022-11-18T09:19:59.275Z,2.83
2022-11-18T09:22:26.138Z,3.28
2022-11-18T09:24:52.759Z,2.95
2022-11-18T09:27:19.344Z,2.00
2022-11-18T09:29:46.132Z,3.00
2022-11-18T09:32:12.930Z,2.90
2022-11-18T09:34:39.438Z,3.00
2022-11-18T09:37:07.116Z,2.85
2022-11-18T09:39:37.359Z,2.58
2022-11-18T09:42:16.419Z,2.80
2022-11-18T09:44:46.278Z,2.70
2022-11-18T09:47:35.200Z,2.83
2022-11-18T09:50:33.982Z,2.70
2022-11-18T09:53:04.478Z,2.60
2022-11-18T09:55:31.898Z,2.78
2022-11-18T09:58:00.039Z,3.00
2022-11-18T10:00:27.959Z,2.58
2022-11-18T10:03:03.049Z,2.80
2022-11-18T10:05:32.938Z,2.67
2022-11-18T10:07:59.878Z,3.78
2022-11-18T10:10:41.253Z,4.68
2022-11-18T10:13:26.639Z,3.58
2022-11-18T10:16:16.200Z,4.45
2022-11-18T10:19:03.834Z,5.75
2022-11-18T10:21:39.339Z,5.32
2022-11-18T10:24:15.511Z,5.70
2022-11-18T10:26:42.681Z,4.90
2022-11-18T10:29:10.139Z,5.18
2022-11-18T10:31:37.663Z,4.63
2022-11-18T10:34:04.418Z,4.78
2022-11-18T10:36:32.499Z,5.30
2022-11-18T10:39:13.281Z,4.43
2022-11-18T10:41:43.401Z,4.45
2022-11-18T10:44:28.178Z,3.72
2022-11-18T10:46:54.839Z,3.78
2022-11-18T10:49:21.515Z,2.97
2022-11-18T10:52:10.598Z,3.22
2022-11-18T10:54:37.639Z,3.15
2022-11-18T10:57:23.662Z,2.70
2022-11-18T10:59:57.503Z,3.63
2022-11-18T11:02:32.479Z,2.67
2022-11-18T11:05:01.670Z,3.45
2022-11-18T11:07:32.072Z,3.00
2022-11-18T11:10:02.558Z,3.38
2022-11-18T11:12:31.221Z,3.50
2022-11-18T11:15:00.763Z,3.17
2022-11-18T11:17:39.348Z,2.90
2022-11-18T11:20:20.159Z,3.28
2022-11-18T11:22:47.178Z,2.90
2022-11-18T11:25:18.900Z,2.47
2022-11-18T11:28:15.485Z,3.03
2022-11-18T11:30:47.847Z,2.90
2022-11-18T11:33:15.222Z,2.58
2022-11-18T11:35:48.239Z,2.45
2022-11-18T11:38:18.256Z,2.72
2022-11-18T11:40:53.296Z,2.35
2022-11-18T11:43:19.817Z,2.60
2022-11-18T11:45:55.194Z,2.70
2022-11-18T11:48:24.876Z,2.10
2022-11-18T11:51:20.938Z,2.75
2022-11-18T11:53:47.865Z,2.60
2022-11-18T11:56:22.851Z,2.33
2022-11-18T11:59:08.276Z,2.92
2022-11-18T12:01:37.656Z,2.22
2022-11-18T12:04:22.632Z,2.08
2022-11-18T12:06:51.040Z,2.47
2022-11-18T12:09:36.557Z,2.53
2022-11-18T12:12:35.210Z,2.47
2022-11-18T12:15:22.457Z,3.60
2022-11-18T12:18:09.157Z,3.40
2022-11-18T12:20:47.225Z,2.90
2022-11-18T12:23:16.056Z,2.45
2022-11-18T12:25:48.750Z,2.28
2022-11-18T12:28:27.738Z,2.08
2022-11-18T12:31:13.157Z,2.38
2022-11-18T12:34:08.994Z,1.83
2022-11-18T12:36:40.128Z,2.20
2022-11-18T12:39:25.084Z,2.30
2022-11-18T12:42:11.328Z,2.13
2022-11-18T12:44:39.526Z,2.05
2022-11-18T12:47:07.209Z,2.20
2022-11-18T12:49:33.915Z,1.88
2022-11-18T12:52:01.295Z,0.20
2022-11-18T12:54:35.854Z,0.20
2022-11-18T12:57:15.544Z,0.20
2022-11-18T12:59:42.214Z,0.10
2022-11-18T13:02:12.493Z,0.20
2022-11-18T13:04:45.106Z,0.20
2022-11-18T13:07:32.589Z,0.20
2022-11-18T13:09:59.337Z,0.20
2022-11-18T13:12:27.562Z,0.20
2022-11-18T13:15:13.514Z,0.20
2022-11-18T13:17:54.415Z,0.20
2022-11-18T13:20:21.033Z,0.20
2022-11-18T13:23:13.185Z,0.20
2022-11-18T13:25:40.715Z,0.20
2022-11-18T13:28:30.425Z,0.10
2022-11-18T13:31:02.769Z,0.20
2022-11-18T13:33:32.852Z,0.20
2022-11-18T13:36:00.505Z,0.20
2022-11-18T13:38:28.705Z,0.22
2022-11-18T13:41:04.851Z,0.20
2022-11-18T13:43:32.454Z,0.25
2022-11-18T13:46:00.875Z,0.10
2022-11-18T13:48:28.699Z,0.20
2022-11-18T13:50:56.437Z,0.20
2022-11-18T13:53:30.686Z,0.10
2022-11-18T13:56:31.652Z,0.20
2022-11-18T13:59:18.174Z,0.30
2022-11-18T14:01:45.318Z,0.20
2022-11-18T14:04:17.556Z,0.20
2022-11-18T14:06:44.020Z,0.20
2022-11-18T14:09:27.120Z,0.20
2022-11-18T14:12:01.699Z,0.20
2022-11-18T14:14:30.623Z,0.20
2022-11-18T14:17:04.182Z,0.30
2022-11-18T14:19:32.551Z,0.20
2022-11-18T14:22:10.055Z,0.20
2022-11-18T14:24:39.560Z,0.20
2022-11-18T14:27:24.433Z,0.30
2022-11-18T14:29:51.061Z,0.20
2022-11-18T14:32:17.526Z,0.20
2022-11-18T14:34:43.975Z,0.20
2022-11-18T14:37:12.455Z,0.10
2022-11-18T14:39:39.822Z,0.20
2022-11-18T14:42:11.098Z,0.20
2022-11-18T14:44:37.560Z,0.30
2022-11-18T14:47:17.840Z,0.13
2022-11-18T14:49:44.388Z,0.15
2022-11-18T14:52:11.014Z,0.30
2022-11-18T14:54:37.629Z,0.30
2022-11-18T14:57:04.984Z,0.20
2022-11-18T14:59:31.573Z,0.20
2022-11-18T15:01:58.767Z,0.30
2022-11-18T15:04:26.241Z,0.20
2022-11-18T15:06:53.108Z,0.20
2022-11-18T15:09:19.807Z,0.30
2022-11-18T15:11:46.317Z,0.20
2022-11-18T15:14:12.869Z,0.30
2022-11-18T15:16:39.396Z,0.20
2022-11-18T15:19:06.398Z,0.30
2022-11-18T15:21:33.800Z,0.20
2022-11-18T15:24:02.034Z,0.10
2022-11-18T15:26:37.387Z,0.20
2022-11-18T15:29:04.166Z,0.22
2022-11-18T15:31:30.776Z,0.30
2022-11-18T15:34:00.832Z,0.20
2022-11-18T15:36:30.078Z,0.20
2022-11-18T15:38:56.633Z,0.20
2022-11-18T15:41:25.329Z,0.30
2022-11-18T15:43:52.406Z,0.20
2022-11-18T15:46:21.154Z,0.20
2022-11-18T15:48:48.440Z,0.20
2022-11-18T15:51:15.076Z,0.30
2022-11-18T15:53:41.618Z,0.20
2022-11-18T15:56:20.577Z,0.30
2022-11-18T15:58:57.412Z,0.20
2022-11-18T16:01:44.261Z,0.20
2022-11-18T16:04:11.740Z,0.50
2022-11-18T16:06:38.671Z,0.20
2022-11-18T16:09:06.082Z,0.30
2022-11-18T16:11:51.372Z,0.20
2022-11-18T16:14:19.012Z,0.20
2022-11-18T16:16:47.061Z,0.30
2022-11-18T16:19:15.471Z,0.20
2022-11-18T16:21:42.502Z,0.17
2022-11-18T16:24:11.883Z,0.20
2022-11-18T16:26:38.833Z,0.30
2022-11-18T16:29:07.437Z,0.20
2022-11-18T16:31:40.612Z,0.20
2022-11-18T16:34:10.317Z,0.20
2022-11-18T16:36:37.521Z,0.10
2022-11-18T16:39:11.114Z,0.55
2022-11-18T16:41:37.882Z,0.20
2022-11-18T16:44:06.198Z,0.32
2022-11-18T16:46:33.393Z,0.20
2022-11-18T16:49:00.421Z,0.30
2022-11-18T16:51:28.124Z,0.30
2022-11-18T16:53:58.853Z,0.20
2022-11-18T16:56:27.855Z,0.20
2022-11-18T16:58:58.534Z,0.20
2022-11-18T17:01:29.276Z,0.20
2022-11-18T17:03:57.013Z,0.20
2022-11-18T17:06:24.854Z,0.20
2022-11-18T17:08:51.713Z,0.20
2022-11-18T17:11:18.963Z,0.20
2022-11-18T17:13:45.633Z,0.20
2022-11-18T17:16:14.220Z,0.20
2022-11-18T17:18:41.415Z,0.20
2022-11-18T17:21:12.195Z,0.20
2022-11-18T17:23:39.358Z,0.20
2022-11-18T17:26:07.017Z,0.20
2022-11-18T17:28:34.474Z,0.20
2022-11-18T17:31:04.973Z,0.20
2022-11-18T17:33:31.598Z,0.20
2022-11-18T17:36:05.100Z,0.10
2022-11-18T17:38:33.594Z,0.25
2022-11-18T17:41:00.197Z,0.20
2022-11-18T17:43:27.283Z,0.20
2022-11-18T17:45:58.761Z,0.20
2022-11-18T17:48:26.005Z,0.28
2022-11-18T17:50:52.893Z,0.20
2022-11-18T17:53:19.774Z,0.20
2022-11-18T17:55:47.151Z,0.20
2022-11-18T17:58:13.896Z,0.28
2022-11-18T18:00:41.016Z,0.30
2022-11-18T18:03:07.612Z,0.30
2022-11-18T18:05:34.234Z,0.22
2022-11-18T18:08:00.994Z,0.20
2022-11-18T18:10:28.115Z,0.20
2022-11-18T18:13:13.048Z,0.20
2022-11-18T18:15:39.679Z,0.30
2022-11-18T18:18:06.514Z,0.28
2022-11-18T18:20:33.818Z,0.20
2022-11-18T18:23:00.533Z,0.30
2022-11-18T18:25:27.117Z,0.22
2022-11-18T18:27:53.779Z,0.20
2022-11-18T18:30:20.393Z,0.20
2022-11-18T18:32:52.187Z,0.22
2022-11-18T18:35:19.395Z,0.20
2022-11-18T18:37:46.034Z,0.20
2022-11-18T18:40:13.815Z,0.20
2022-11-18T18:42:40.390Z,0.13
2022-11-18T18:45:25.877Z,0.20
2022-11-18T18:47:52.575Z,0.20
2022-11-18T18:50:19.121Z,0.30
2022-11-18T18:52:45.864Z,0.20
2022-11-18T18:55:12.349Z,0.20
2022-11-18T18:57:38.893Z,0.20
2022-11-18T19:00:05.855Z,0.20
2022-11-18T19:02:34.032Z,0.20
2022-11-18T19:05:00.537Z,0.20
2022-11-18T19:07:28.844Z,0.10
2022-11-18T19:09:55.511Z,0.30
2022-11-18T19:12:40.427Z,4.15
2022-11-18T19:15:07.486Z,0.22
2022-11-18T19:17:34.363Z,0.55
2022-11-18T19:20:19.286Z,0.20
2022-11-18T19:22:45.867Z,0.38
2022-11-18T19:25:12.470Z,0.20
2022-11-18T19:27:40.228Z,0.25
2022-11-18T19:30:07.687Z,0.22
2022-11-18T19:32:37.843Z,0.20
2022-11-18T19:35:05.285Z,0.28
2022-11-18T19:37:32.384Z,0.30
2022-11-18T19:39:59.184Z,0.20
2022-11-18T19:42:25.703Z,0.20
2022-11-18T19:44:52.243Z,0.10
2022-11-18T19:47:18.724Z,0.20
2022-11-18T19:49:45.305Z,0.20
2022-11-18T19:52:11.842Z,0.20
2022-11-18T19:54:39.956Z,0.20
2022-11-18T19:57:07.324Z,0.25
2022-11-18T19:59:34.247Z,0.28
2022-11-18T20:02:00.804Z,0.25
2022-11-18T20:04:27.363Z,0.20
2022-11-18T20:06:53.978Z,0.20
2022-11-18T20:09:20.830Z,0.25
2022-11-18T20:11:48.151Z,0.20
2022-11-18T20:14:14.763Z,0.22
2022-11-18T20:16:41.379Z,0.20
2022-11-18T20:19:10.896Z,0.30
2022-11-18T20:21:39.309Z,0.30
2022-11-18T20:24:06.764Z,0.20
2022-11-18T20:26:37.468Z,0.20
2022-11-18T20:29:04.499Z,0.20
2022-11-18T20:31:33.247Z,0.30
2022-11-18T20:33:59.802Z,0.30
2022-11-18T20:36:27.463Z,0.20
2022-11-18T20:38:54.923Z,0.20
2022-11-18T20:41:22.144Z,0.57
2022-11-18T20:43:48.683Z,0.20
2022-11-18T20:46:20.462Z,0.57
2022-11-18T20:48:47.643Z,0.30
2022-11-18T20:51:18.463Z,0.30
2022-11-18T20:53:45.564Z,0.20
2022-11-18T20:56:13.387Z,0.30
2022-11-18T20:58:39.966Z,0.30
2022-11-18T21:01:12.706Z,0.20
2022-11-18T21:03:39.843Z,0.20
2022-11-18T21:06:13.464Z,0.30
2022-11-18T21:08:41.263Z,0.20
2022-11-18T21:11:09.063Z,0.22
2022-11-18T21:13:54.563Z,0.30
2022-11-18T21:16:21.546Z,0.30
2022-11-18T21:18:48.328Z,0.30
2022-11-18T21:21:33.626Z,0.20
2022-11-18T21:24:00.698Z,0.20
2022-11-18T21:26:28.288Z,0.20
2022-11-18T21:28:56.127Z,0.30
2022-11-18T21:31:23.596Z,0.20
2022-11-18T21:33:50.186Z,0.20
2022-11-18T21:36:17.616Z,0.30
2022-11-18T21:38:44.128Z,0.17
2022-11-18T21:41:10.917Z,0.20
2022-11-18T21:46:25.609Z,0.25
2022-11-18T21:48:55.741Z,0.25
2022-11-18T21:51:26.202Z,0.20
2022-11-18T21:53:52.967Z,0.40
2022-11-18T21:56:23.696Z,0.20
2022-11-18T21:58:50.389Z,0.30
2022-11-18T22:01:21.278Z,0.30
2022-11-18T22:03:53.818Z,0.30
2022-11-18T22:06:22.283Z,0.30
2022-11-18T22:08:48.760Z,0.17
2022-11-18T22:11:15.597Z,0.20
2022-11-18T22:13:42.438Z,0.30
2022-11-18T22:16:11.149Z,0.40
2022-11-18T22:18:38.871Z,0.43
2022-11-18T22:21:07.142Z,0.30
2022-11-18T22:23:34.101Z,0.20
2022-11-18T22:26:20.791Z,0.20
2022-11-18T22:28:47.574Z,0.20
2022-11-18T22:31:20.150Z,0.20
2022-11-18T22:33:46.953Z,0.30
2022-11-18T22:36:15.118Z,0.20
2022-11-18T22:38:43.380Z,0.20
2022-11-18T22:41:30.912Z,0.25
2022-11-18T22:43:59.466Z,0.20
2022-11-18T22:46:29.211Z,0.20
2022-11-18T22:48:56.188Z,0.20
2022-11-18T22:51:22.762Z,2.10
2022-11-18T22:53:49.251Z,0.20
2022-11-18T22:56:15.979Z,0.30
2022-11-18T22:58:42.421Z,0.20
2022-11-18T23:01:10.422Z,0.30
2022-11-18T23:03:36.845Z,0.30
2022-11-18T23:06:03.447Z,0.20
2022-11-18T23:08:34.337Z,0.30
2022-11-18T23:11:04.696Z,0.20
2022-11-18T23:13:49.500Z,0.15
2022-11-18T23:16:15.986Z,0.20
2022-11-18T23:18:44.575Z,0.20
2022-11-18T23:21:11.013Z,0.30
2022-11-18T23:23:37.473Z,0.20
2022-11-18T23:26:08.427Z,0.30
2022-11-18T23:28:35.023Z,0.20
2022-11-18T23:31:05.513Z,0.20
2022-11-18T23:33:32.741Z,0.22
2022-11-18T23:35:59.318Z,0.20
2022-11-18T23:38:26.844Z,0.20
2022-11-18T23:40:57.061Z,0.20
2022-11-18T23:43:24.148Z,0.30
2022-11-18T23:45:51.043Z,0.20
2022-11-18T23:48:17.710Z,0.30
2022-11-18T23:50:57.776Z,0.30
2022-11-18T23:53:24.800Z,0.20
2022-11-18T23:55:51.522Z,0.20
2022-11-18T23:58:19.281Z,0.20
